createdAt,value
2022-10-12T00:01:05.760Z,11.06
2022-10-12T00:04:07.262Z,11.04
2022-10-12T00:07:08.619Z,10.97
2022-10-12T00:10:09.953Z,10.89
2022-10-12T00:13:11.370Z,10.74
2022-10-12T00:16:12.940Z,10.74
2022-10-12T00:19:14.377Z,10.70
2022-10-12T00:22:16.072Z,10.65
2022-10-12T00:25:17.422Z,10.60
2022-10-12T00:28:18.959Z,10.52
2022-10-12T00:31:20.770Z,10.44
2022-10-12T00:34:22.119Z,10.38
2022-10-12T00:37:23.476Z,10.26
2022-10-12T00:40:24.825Z,10.15
2022-10-12T00:43:27.077Z,10.06
2022-10-12T00:46:31.421Z,10.07
2022-10-12T00:49:32.844Z,9.97
2022-10-12T00:52:47.221Z,9.87
2022-10-12T00:55:49.111Z,9.76
2022-10-12T00:58:50.470Z,9.69
2022-10-12T01:01:51.862Z,9.65
2022-10-12T01:04:53.412Z,9.63
2022-10-12T01:07:54.763Z,9.58
2022-10-12T01:10:56.172Z,9.56
2022-10-12T01:13:57.856Z,9.53
2022-10-12T01:17:12.589Z,9.54
2022-10-12T01:20:23.024Z,9.51
2022-10-12T01:23:46.604Z,9.38
2022-10-12T01:26:57.141Z,9.30
2022-10-12T01:30:15.017Z,9.28
2022-10-12T01:33:28.475Z,9.32
2022-10-12T01:36:33.516Z,9.28
2022-10-12T01:39:35.619Z,9.25
2022-10-12T01:42:40.332Z,9.19
2022-10-12T01:45:41.731Z,9.19
2022-10-12T01:48:43.561Z,9.18
2022-10-12T01:51:57.132Z,9.16
2022-10-12T01:54:58.421Z,9.18
2022-10-12T01:58:04.367Z,9.17
2022-10-12T02:01:16.336Z,9.13
2022-10-12T02:04:18.955Z,9.11
2022-10-12T02:07:22.388Z,9.13
2022-10-12T02:10:28.082Z,9.08
2022-10-12T02:13:30.383Z,9.00
2022-10-12T02:16:32.888Z,8.94
2022-10-12T02:19:38.491Z,8.89
2022-10-12T02:22:39.865Z,8.88
2022-10-12T02:25:41.275Z,8.88
2022-10-12T02:28:42.731Z,8.88
2022-10-12T02:31:47.229Z,8.85
2022-10-12T02:34:50.866Z,8.87
2022-10-12T02:37:54.125Z,8.91
2022-10-12T02:40:56.383Z,8.96
2022-10-12T02:44:01.226Z,8.96
2022-10-12T02:47:02.849Z,8.90
2022-10-12T02:50:04.307Z,8.85
2022-10-12T02:53:05.720Z,8.89
2022-10-12T02:56:08.476Z,8.85
2022-10-12T02:59:09.816Z,8.84
2022-10-12T03:02:11.361Z,8.81
2022-10-12T03:05:12.693Z,8.73
2022-10-12T03:08:14.043Z,8.71
2022-10-12T03:11:15.522Z,8.68
2022-10-12T03:14:17.477Z,8.51
2022-10-12T03:17:18.814Z,8.45
2022-10-12T03:20:20.232Z,8.39
2022-10-12T03:23:21.546Z,8.36
2022-10-12T03:26:23.193Z,8.35
2022-10-12T03:29:24.616Z,8.33
2022-10-12T03:32:25.976Z,8.29
2022-10-12T03:35:27.351Z,8.28
2022-10-12T03:38:28.860Z,8.30
2022-10-12T03:41:30.416Z,8.31
2022-10-12T03:44:31.744Z,8.36
2022-10-12T03:47:33.064Z,8.30
2022-10-12T03:50:35.055Z,8.28
2022-10-12T03:53:36.433Z,8.13
2022-10-12T03:56:37.837Z,8.05
2022-10-12T03:59:39.197Z,7.98
2022-10-12T04:02:40.592Z,7.96
2022-10-12T04:05:41.982Z,7.89
2022-10-12T04:08:46.014Z,7.82
2022-10-12T04:11:51.121Z,7.86
2022-10-12T04:14:52.540Z,7.82
2022-10-12T04:17:53.870Z,7.76
2022-10-12T04:20:55.210Z,7.71
2022-10-12T04:23:56.545Z,7.61
2022-10-12T04:26:57.882Z,7.62
2022-10-12T04:29:59.246Z,7.59
2022-10-12T04:33:00.605Z,7.53
2022-10-12T04:36:01.934Z,7.49
2022-10-12T04:39:03.292Z,7.45
2022-10-12T04:42:04.743Z,7.40
2022-10-12T04:45:06.294Z,7.37
2022-10-12T04:48:07.635Z,7.37
2022-10-12T04:51:09.719Z,7.39
2022-10-12T04:54:11.242Z,7.37
2022-10-12T04:57:12.607Z,7.33
2022-10-12T05:00:14.149Z,7.36
2022-10-12T05:03:15.717Z,7.32
2022-10-12T05:06:17.109Z,7.29
2022-10-12T05:09:18.484Z,7.19
2022-10-12T05:12:19.802Z,7.17
2022-10-12T05:15:21.378Z,7.16
2022-10-12T05:18:22.777Z,7.16
2022-10-12T05:21:24.186Z,7.22
2022-10-12T05:24:25.630Z,7.22
2022-10-12T05:27:27.050Z,7.29
2022-10-12T05:30:28.395Z,7.34
2022-10-12T05:33:29.968Z,7.41
2022-10-12T05:36:31.369Z,7.48
2022-10-12T05:39:32.722Z,7.52
2022-10-12T05:42:37.173Z,7.57
2022-10-12T05:45:38.675Z,7.61
2022-10-12T05:48:39.990Z,7.64
2022-10-12T05:51:41.400Z,7.70
2022-10-12T05:54:42.742Z,7.78
2022-10-12T05:57:47.315Z,7.75
2022-10-12T06:00:51.066Z,7.81
2022-10-12T06:03:54.551Z,7.87
2022-10-12T06:06:55.904Z,7.96
2022-10-12T06:10:03.747Z,7.89
2022-10-12T06:13:05.495Z,7.89
2022-10-12T06:16:07.173Z,7.93
2022-10-12T06:19:10.398Z,7.97
2022-10-12T06:22:11.752Z,8.06
2022-10-12T06:25:13.109Z,8.13
2022-10-12T06:28:17.920Z,8.15
2022-10-12T06:31:19.321Z,8.21
2022-10-12T06:34:20.924Z,8.27
2022-10-12T06:37:47.831Z,8.38
2022-10-12T06:40:43.688Z,8.47
2022-10-12T06:43:45.097Z,8.55
2022-10-12T06:46:46.630Z,8.62
2022-10-12T06:49:48.017Z,8.66
2022-10-12T06:52:49.373Z,8.71
2022-10-12T06:55:50.705Z,8.83
2022-10-12T06:58:55.702Z,8.95
2022-10-12T07:01:57.083Z,9.03
2022-10-12T07:04:58.478Z,9.13
2022-10-12T07:07:59.802Z,9.18
2022-10-12T07:11:04.539Z,9.28
2022-10-12T07:14:05.932Z,9.40
2022-10-12T07:17:07.467Z,9.31
2022-10-12T07:20:08.862Z,9.34
2022-10-12T07:23:10.176Z,9.57
2022-10-12T07:26:11.596Z,9.60
2022-10-12T07:29:12.949Z,9.76
2022-10-12T07:32:14.295Z,9.86
2022-10-12T07:35:15.638Z,10.01
2022-10-12T07:38:16.972Z,10.06
2022-10-12T07:41:18.414Z,10.13
2022-10-12T07:44:19.869Z,10.14
2022-10-12T07:47:21.223Z,10.20
2022-10-12T07:50:22.678Z,10.28
2022-10-12T07:53:24.043Z,10.45
2022-10-12T07:56:25.366Z,10.69
2022-10-12T07:59:26.800Z,10.82
2022-10-12T08:02:28.113Z,10.95
2022-10-12T08:05:29.519Z,11.05
2022-10-12T08:08:30.861Z,11.06
2022-10-12T08:11:32.255Z,11.12
2022-10-12T08:14:33.603Z,11.02
2022-10-12T08:17:34.931Z,11.10
2022-10-12T08:20:38.913Z,11.18
2022-10-12T08:23:40.283Z,11.25
2022-10-12T08:26:41.664Z,11.35
2022-10-12T08:29:43.030Z,11.52
2022-10-12T08:32:44.397Z,11.54
2022-10-12T08:35:45.870Z,11.95
2022-10-12T08:38:50.486Z,12.09
2022-10-12T08:41:54.825Z,12.79
2022-10-12T08:45:15.177Z,13.99
2022-10-12T08:48:17.882Z,14.52
2022-10-12T08:51:20.283Z,14.78
2022-10-12T08:54:26.215Z,15.46
2022-10-12T08:57:27.591Z,16.37
2022-10-12T09:00:29.000Z,17.85
2022-10-12T09:03:38.305Z,18.76
2022-10-12T09:06:40.578Z,19.09
2022-10-12T09:09:48.076Z,19.58
2022-10-12T09:12:58.550Z,19.87
2022-10-12T09:16:00.560Z,19.82
2022-10-12T09:19:03.611Z,19.50
2022-10-12T09:22:05.261Z,19.68
2022-10-12T09:25:06.785Z,20.29
2022-10-12T09:28:21.244Z,21.62
2022-10-12T09:31:33.335Z,21.99
2022-10-12T09:34:34.812Z,22.36
2022-10-12T09:37:36.536Z,21.75
2022-10-12T09:40:37.922Z,21.21
2022-10-12T09:43:39.380Z,19.96
2022-10-12T09:46:41.885Z,20.63
2022-10-12T09:49:44.035Z,19.71
2022-10-12T09:52:45.375Z,19.97
2022-10-12T09:55:53.456Z,20.88
2022-10-12T09:58:56.280Z,20.62
2022-10-12T10:02:05.155Z,19.83
2022-10-12T10:05:14.537Z,18.25
2022-10-12T10:08:19.863Z,16.45
2022-10-12T10:11:26.074Z,16.07
2022-10-12T10:14:35.143Z,16.65
2022-10-12T10:17:36.493Z,16.39
2022-10-12T10:20:49.800Z,16.80
2022-10-12T10:23:51.950Z,16.89
2022-10-12T10:27:03.561Z,17.46
2022-10-12T10:30:29.257Z,18.02
2022-10-12T10:33:30.668Z,17.87
2022-10-12T10:36:39.531Z,18.12
2022-10-12T10:39:48.022Z,17.97
2022-10-12T10:42:49.936Z,17.70
2022-10-12T10:45:58.781Z,17.53
2022-10-12T10:49:02.075Z,17.28
2022-10-12T10:52:04.012Z,17.13
2022-10-12T10:55:25.611Z,16.86
2022-10-12T10:58:32.233Z,16.67
2022-10-12T11:01:57.172Z,17.18
2022-10-12T11:05:10.946Z,18.10
2022-10-12T11:08:13.221Z,17.73
2022-10-12T11:11:15.720Z,18.26
2022-10-12T11:14:21.255Z,18.33
2022-10-12T11:17:28.243Z,17.72
2022-10-12T11:20:50.263Z,18.62
2022-10-12T11:23:52.254Z,18.12
2022-10-12T11:27:16.952Z,18.30
2022-10-12T11:30:22.338Z,17.33
2022-10-12T11:33:24.597Z,18.01
2022-10-12T11:36:26.352Z,17.39
2022-10-12T11:39:27.687Z,17.28
2022-10-12T11:42:43.659Z,17.51
2022-10-12T11:45:47.219Z,17.93
2022-10-12T11:48:51.693Z,17.99
2022-10-12T11:51:53.908Z,18.00
2022-10-12T11:54:58.264Z,17.95
2022-10-12T11:58:00.863Z,17.52
2022-10-12T12:01:05.290Z,17.75
2022-10-12T12:04:41.344Z,18.18
2022-10-12T12:07:47.251Z,18.39
2022-10-12T12:11:08.599Z,17.95
2022-10-12T12:14:25.423Z,18.16
2022-10-12T12:17:31.704Z,18.95
2022-10-12T12:20:43.082Z,18.61
2022-10-12T12:23:56.490Z,18.95
2022-10-12T12:26:57.853Z,17.96
2022-10-12T12:30:03.709Z,18.31
2022-10-12T12:33:06.355Z,16.93
2022-10-12T12:36:08.384Z,17.01
2022-10-12T12:39:20.165Z,16.97
2022-10-12T12:42:22.109Z,17.56
2022-10-12T12:45:32.545Z,17.65
2022-10-12T12:48:42.894Z,17.90
2022-10-12T12:51:44.232Z,17.96
2022-10-12T12:54:57.960Z,18.25
2022-10-12T12:58:08.601Z,17.36
2022-10-12T13:01:33.010Z,17.45
2022-10-12T13:04:40.567Z,17.30
2022-10-12T13:07:48.076Z,17.07
2022-10-12T13:10:53.651Z,17.10
2022-10-12T13:13:57.912Z,17.11
2022-10-12T13:17:32.409Z,17.64
2022-10-12T13:20:31.228Z,18.26
2022-10-12T13:23:32.662Z,18.12
2022-10-12T13:26:33.981Z,17.08
2022-10-12T13:29:36.627Z,16.80
2022-10-12T13:32:37.912Z,16.50
2022-10-12T13:35:41.179Z,17.74
2022-10-12T13:38:42.562Z,16.94
2022-10-12T13:41:43.984Z,17.04
2022-10-12T13:44:46.053Z,17.94
2022-10-12T13:47:47.405Z,17.33
2022-10-12T13:50:52.659Z,17.87
2022-10-12T13:53:53.992Z,18.60
2022-10-12T13:56:56.508Z,18.43
2022-10-12T14:00:17.932Z,18.64
2022-10-12T14:03:23.039Z,17.59
2022-10-12T14:06:26.236Z,16.90
2022-10-12T14:09:28.445Z,16.83
2022-10-12T14:12:30.354Z,17.12
2022-10-12T14:15:32.484Z,16.58
2022-10-12T14:18:35.469Z,17.52
2022-10-12T14:21:37.045Z,16.85
2022-10-12T14:24:38.437Z,16.72
2022-10-12T14:27:39.842Z,18.05
2022-10-12T14:30:49.778Z,18.28
2022-10-12T14:33:51.198Z,17.79
2022-10-12T14:37:06.303Z,16.95
2022-10-12T14:40:26.071Z,16.74
2022-10-12T14:43:27.586Z,16.87
2022-10-12T14:46:29.507Z,16.63
2022-10-12T14:49:40.890Z,16.38
2022-10-12T14:52:42.184Z,16.60
2022-10-12T14:55:43.683Z,16.72
2022-10-12T14:58:45.049Z,16.60
2022-10-12T15:01:51.276Z,16.67
2022-10-12T15:04:52.981Z,16.57
2022-10-12T15:07:54.563Z,16.34
2022-10-12T15:10:55.934Z,16.34
2022-10-12T15:13:57.283Z,16.34
2022-10-12T15:16:58.643Z,16.28
2022-10-12T15:20:00.012Z,16.22
2022-10-12T15:23:02.694Z,16.24
2022-10-12T15:26:04.798Z,16.21
2022-10-12T15:29:06.159Z,16.16
2022-10-12T15:32:07.583Z,16.11
2022-10-12T15:35:19.521Z,15.99
2022-10-12T15:38:21.073Z,15.91
2022-10-12T15:41:26.455Z,15.75
2022-10-12T15:44:28.276Z,15.61
2022-10-12T15:47:29.640Z,15.54
2022-10-12T15:50:33.771Z,15.48
2022-10-12T15:53:35.158Z,15.42
2022-10-12T15:56:38.373Z,15.30
2022-10-12T15:59:39.766Z,15.28
2022-10-12T16:02:42.204Z,15.23
2022-10-12T16:05:43.624Z,15.14
2022-10-12T16:08:45.033Z,15.10
2022-10-12T16:11:46.397Z,15.04
2022-10-12T16:14:47.799Z,14.90
2022-10-12T16:17:49.439Z,14.81
2022-10-12T16:20:54.003Z,14.71
2022-10-12T16:23:55.601Z,14.66
2022-10-12T16:26:57.104Z,14.60
2022-10-12T16:29:58.552Z,14.56
2022-10-12T16:32:59.929Z,14.49
2022-10-12T16:36:01.350Z,14.40
2022-10-12T16:39:02.723Z,14.28
2022-10-12T16:42:04.135Z,14.17
2022-10-12T16:45:05.729Z,14.04
2022-10-12T16:48:07.091Z,13.92
2022-10-12T16:51:08.783Z,13.90
2022-10-12T16:54:10.144Z,13.80
2022-10-12T16:57:11.576Z,13.63
2022-10-12T17:00:14.123Z,13.46
2022-10-12T17:03:15.538Z,13.26
2022-10-12T17:06:16.915Z,13.16
2022-10-12T17:09:18.269Z,13.09
2022-10-12T17:12:19.637Z,12.91
2022-10-12T17:15:21.084Z,12.79
2022-10-12T17:18:22.582Z,12.71
2022-10-12T17:21:23.985Z,12.56
2022-10-12T17:24:26.311Z,12.53
2022-10-12T17:27:31.454Z,12.47
2022-10-12T17:30:35.202Z,12.30
2022-10-12T17:33:36.565Z,12.20
2022-10-12T17:36:37.905Z,12.14
2022-10-12T17:39:40.450Z,12.14
2022-10-12T17:42:41.793Z,12.06
2022-10-12T17:45:43.185Z,11.98
2022-10-12T17:48:44.562Z,11.85
2022-10-12T17:51:48.986Z,11.70
2022-10-12T17:54:50.358Z,11.57
2022-10-12T17:57:51.954Z,11.49
2022-10-12T18:00:53.378Z,11.46
2022-10-12T18:03:55.463Z,11.43
2022-10-12T18:06:56.815Z,11.38
2022-10-12T18:13:05.092Z,11.27
2022-10-12T18:16:10.475Z,11.25
2022-10-12T18:19:11.891Z,11.21
2022-10-12T18:22:13.281Z,11.15
2022-10-12T18:25:15.606Z,11.09
2022-10-12T18:28:17.059Z,10.99
2022-10-12T18:31:21.436Z,10.94
2022-10-12T18:34:22.824Z,10.88
2022-10-12T18:37:24.211Z,10.88
2022-10-12T18:40:25.587Z,10.85
2022-10-12T18:43:26.946Z,10.85
2022-10-12T18:46:28.868Z,10.87
2022-10-12T18:49:30.201Z,10.79
2022-10-12T18:52:31.616Z,10.78
2022-10-12T18:55:35.875Z,10.76
2022-10-12T18:58:38.225Z,10.76
2022-10-12T19:01:39.545Z,10.75
2022-10-12T19:04:40.902Z,10.76
2022-10-12T19:07:42.224Z,10.77
2022-10-12T19:10:43.613Z,10.75
2022-10-12T19:13:45.170Z,10.82
2022-10-12T19:16:46.780Z,10.85
2022-10-12T19:19:48.136Z,10.94
2022-10-12T19:22:49.631Z,10.99
2022-10-12T19:25:50.981Z,11.00
2022-10-12T19:28:53.301Z,11.00
2022-10-12T19:31:54.689Z,11.02
2022-10-12T19:34:56.098Z,11.03
2022-10-12T19:37:57.442Z,11.06
2022-10-12T19:40:58.858Z,11.10
2022-10-12T19:44:00.297Z,11.13
2022-10-12T19:47:02.716Z,11.20
2022-10-12T19:50:04.129Z,11.19
2022-10-12T19:53:05.528Z,11.18
2022-10-12T19:56:07.584Z,11.21
2022-10-12T19:59:08.969Z,11.27
2022-10-12T20:02:10.447Z,11.33
2022-10-12T20:05:11.844Z,11.35
2022-10-12T20:08:13.189Z,11.39
2022-10-12T20:11:18.914Z,11.44
2022-10-12T20:14:21.282Z,11.48
2022-10-12T20:17:22.623Z,11.54
2022-10-12T20:20:23.998Z,11.51
2022-10-12T20:23:25.316Z,11.50
2022-10-12T20:26:26.743Z,11.48
2022-10-12T20:29:28.090Z,11.50
2022-10-12T20:32:29.452Z,11.51
2022-10-12T20:35:30.864Z,11.48
2022-10-12T20:38:32.201Z,11.49
2022-10-12T20:41:33.613Z,11.50
2022-10-12T20:44:34.990Z,11.48
2022-10-12T20:47:36.352Z,11.48
2022-10-12T20:50:38.141Z,11.42
2022-10-12T20:53:39.506Z,11.41
2022-10-12T20:56:40.929Z,11.35
2022-10-12T20:59:45.004Z,11.33
2022-10-12T21:02:46.399Z,11.29
2022-10-12T21:05:47.780Z,11.24
2022-10-12T21:08:49.788Z,11.22
2022-10-12T21:11:51.161Z,11.15
2022-10-12T21:14:52.555Z,11.08
2022-10-12T21:17:53.909Z,11.03
2022-10-12T21:20:55.797Z,10.97
2022-10-12T21:23:57.842Z,10.94
2022-10-12T21:26:59.210Z,10.90
2022-10-12T21:30:00.574Z,10.81
2022-10-12T21:33:01.926Z,10.71
2022-10-12T21:36:07.631Z,10.59
2022-10-12T21:39:12.996Z,10.55
2022-10-12T21:42:14.346Z,10.55
2022-10-12T21:45:15.707Z,10.53
2022-10-12T21:48:17.058Z,10.49
2022-10-12T21:51:18.802Z,10.43
2022-10-12T21:54:20.173Z,10.40
2022-10-12T21:57:21.614Z,10.37
2022-10-12T22:00:22.971Z,10.36
2022-10-12T22:03:24.338Z,10.38
2022-10-12T22:06:26.397Z,10.36
2022-10-12T22:09:27.735Z,10.30
2022-10-12T22:12:30.092Z,10.25
2022-10-12T22:15:31.441Z,10.24
2022-10-12T22:18:32.893Z,10.25
2022-10-12T22:21:34.593Z,10.24
2022-10-12T22:24:36.040Z,10.27
2022-10-12T22:27:37.374Z,10.25
2022-10-12T22:30:38.998Z,10.28
2022-10-12T22:33:40.382Z,10.32
2022-10-12T22:36:43.351Z,10.37
2022-10-12T22:39:44.827Z,10.39
2022-10-12T22:42:46.188Z,10.42
2022-10-12T22:45:47.538Z,10.42
2022-10-12T22:48:48.922Z,10.46
2022-10-12T22:51:50.363Z,10.45
2022-10-12T22:54:51.752Z,10.47
2022-10-12T22:57:53.112Z,10.45
2022-10-12T23:01:01.214Z,10.35
2022-10-12T23:04:02.897Z,10.35
2022-10-12T23:07:04.247Z,10.40
2022-10-12T23:10:05.804Z,10.39
2022-10-12T23:13:07.149Z,10.44
2022-10-12T23:16:12.472Z,10.47
2022-10-12T23:19:13.855Z,10.46
2022-10-12T23:22:15.344Z,10.54
2022-10-12T23:25:16.897Z,10.57
2022-10-12T23:28:18.294Z,10.60
2022-10-12T23:31:20.529Z,10.64
2022-10-12T23:34:21.894Z,10.69
2022-10-12T23:37:23.356Z,10.73
2022-10-12T23:40:24.699Z,10.67
2022-10-12T23:43:26.785Z,10.70
2022-10-12T23:46:28.200Z,10.72
2022-10-12T23:49:29.588Z,10.76
2022-10-12T23:52:31.056Z,10.80
2022-10-12T23:55:32.677Z,10.83
2022-10-12T23:58:34.245Z,10.84
